Time;durP1;ratioP1;P1;durP2;ratioP2;P2;SDS_P1;SDS_P2;PMS_P1;PMS_P2;Temp;Humidity;BMP_temperature;BMP_pressure;BME280_temperature;BME280_humidity;BME280_pressure;Samples;Min_cycle;Max_cycle;Signal;HPM_P1;HPM_P2
2023/06/11 05:04:08;;;;;;;20.47;15.67;;;14.90;99.90;;;;;;5139730;27;20278;-81
2023/06/11 05:12:29;;;;;;;16.37;13.97;;;15.00;99.90;;;;;;5155850;27;20733;-87
2023/06/11 05:19:56;;;;;;;14.50;11.83;;;15.10;99.90;;;;;;5148778;27;20765;-86
2023/06/11 05:26:47;;;;;;;14.20;11.70;;;15.30;99.90;;;;;;5135358;27;20632;-86
2023/06/11 05:34:56;;;;;;;11.27;10.07;;;15.40;99.90;;;;;;5138245;27;20305;-88
2023/06/11 05:41:42;;;;;;;11.77;8.83;;;15.60;99.90;;;;;;5137028;27;20275;-85
2023/06/11 05:48:14;;;;;;;11.07;9.07;;;15.60;99.90;;;;;;5135884;27;20289;-87
2023/06/11 05:53:14;;;;;;;11.10;9.60;;;15.80;99.90;;;;;;5115049;27;20359;-86
2023/06/11 05:57:21;;;;;;;11.67;9.27;;;15.80;99.90;;;;;;5151447;27;20272;-86
2023/06/11 06:00:46;;;;;;;11.60;8.77;;;;;;;;;;5137296;27;20273;-85
2023/06/11 06:04:47;;;;;;;10.13;8.60;;;16.00;99.90;;;;;;5116190;27;20304;-86
2023/06/11 06:08:51;;;;;;;10.00;7.87;;;16.00;99.90;;;;;;5118708;27;20375;-86
2023/06/11 06:12:50;;;;;;;8.80;7.90;;;15.90;99.90;;;;;;5095925;28;20270;-86
2023/06/11 06:16:38;;;;;;;8.13;7.30;;;16.20;99.90;;;;;;5148354;27;20664;-87
2023/06/11 06:19:03;;;;;;;9.10;7.87;;;16.30;99.90;;;;;;5117627;28;20301;-88
2023/06/11 06:21:29;;;;;;;7.93;7.13;;;16.30;99.90;;;;;;5134358;28;20554;-85
2023/06/11 06:23:55;;;;;;;8.80;7.90;;;;;;;;;;5135790;28;20195;-85
2023/06/11 06:26:22;;;;;;;7.60;6.87;;;16.40;99.90;;;;;;5136106;28;20241;-85
2023/06/11 06:28:48;;;;;;;7.33;6.63;;;16.60;99.90;;;;;;5132302;28;20215;-85
2023/06/11 06:31:17;;;;;;;7.77;6.50;;;16.80;99.90;;;;;;5131868;28;20183;-84
2023/06/11 06:33:42;;;;;;;7.17;6.47;;;16.80;99.90;;;;;;5131406;28;20178;-86
2023/06/11 06:36:08;;;;;;;8.13;6.53;;;16.80;99.90;;;;;;5127742;28;20239;-87
2023/06/11 06:38:35;;;;;;;9.27;6.40;;;16.80;99.90;;;;;;5121064;28;20293;-85
2023/06/11 06:41:01;;;;;;;6.33;5.73;;;16.80;99.90;;;;;;5114983;28;20577;-86
2023/06/11 06:43:27;;;;;;;6.67;5.70;;;16.90;99.90;;;;;;5116282;28;20208;-83
2023/06/11 06:45:52;;;;;;;6.27;5.67;;;17.00;99.90;;;;;;5117571;28;20210;-85
2023/06/11 06:48:18;;;;;;;7.33;5.93;;;17.20;99.90;;;;;;5116700;28;20221;-83
2023/06/11 06:50:44;;;;;;;6.90;6.00;;;17.50;99.90;;;;;;5121851;28;20191;-83
2023/06/11 06:53:10;;;;;;;7.10;6.03;;;17.50;99.90;;;;;;5117365;28;20171;-84
2023/06/11 06:55:35;;;;;;;6.57;5.97;;;17.50;99.90;;;;;;5119050;28;20217;-86
2023/06/11 06:58:01;;;;;;;6.70;6.10;;;17.60;99.90;;;;;;5117229;28;20194;-84
2023/06/11 07:00:27;;;;;;;7.80;6.33;;;17.60;99.90;;;;;;5116767;28;20179;-85
2023/06/11 07:02:52;;;;;;;10.10;6.10;;;17.70;99.90;;;;;;5119034;28;20178;-85
2023/06/11 07:05:18;;;;;;;5.87;5.27;;;17.60;99.90;;;;;;5119074;28;20208;-84
2023/06/11 07:07:44;;;;;;;6.30;5.70;;;17.70;99.90;;;;;;5117832;28;20172;-84
2023/06/11 07:10:09;;;;;;;7.13;6.10;;;17.80;99.90;;;;;;5118621;28;20523;-84
2023/06/11 07:12:35;;;;;;;6.73;6.07;;;17.80;99.90;;;;;;5116923;28;20263;-84
2023/06/11 07:15:01;;;;;;;9.80;6.20;;;17.80;99.90;;;;;;5117884;28;20211;-84
2023/06/11 07:17:27;;;;;;;6.60;5.60;;;17.90;99.90;;;;;;5118494;28;20168;-82
2023/06/11 07:19:53;;;;;;;6.80;6.03;;;18.00;99.90;;;;;;5116874;28;20215;-83
2023/06/11 07:22:18;;;;;;;7.00;6.30;;;18.00;99.90;;;;;;5117558;28;20539;-85
2023/06/11 07:24:47;;;;;;;6.67;5.97;;;18.00;99.90;;;;;;5118858;28;20534;-85
2023/06/11 07:27:13;;;;;;;6.73;6.03;;;18.20;99.90;;;;;;5110050;28;20176;-83
2023/06/11 07:29:39;;;;;;;7.13;6.07;;;18.40;99.90;;;;;;5106304;28;20199;-85
2023/06/11 07:32:07;;;;;;;6.30;5.60;;;18.50;99.90;;;;;;5105884;28;20172;-83
2023/06/11 07:34:32;;;;;;;6.17;5.57;;;18.70;99.90;;;;;;5104073;28;20210;-85
2023/06/11 07:36:58;;;;;;;10.90;5.60;;;18.80;99.90;;;;;;5103904;28;20172;-86
2023/06/11 07:39:23;;;;;;;6.23;5.63;;;19.00;99.90;;;;;;5105738;28;20175;-83
2023/06/11 07:41:49;;;;;;;6.10;5.50;;;19.20;99.90;;;;;;5103861;28;20554;-83
2023/06/11 07:44:15;;;;;;;5.77;5.27;;;19.30;99.90;;;;;;5106811;28;20169;-84
2023/06/11 07:46:41;;;;;;;8.03;5.90;;;19.40;99.90;;;;;;5107377;28;20656;-85
2023/06/11 07:49:06;;;;;;;5.97;5.20;;;19.40;99.90;;;;;;5103866;28;20196;-85
2023/06/11 07:51:32;;;;;;;7.33;4.97;;;19.40;99.90;;;;;;5105039;28;20202;-84
2023/06/11 07:54:00;;;;;;;8.50;5.27;;;19.60;99.90;;;;;;5103967;28;20214;-83
2023/06/11 07:56:26;;;;;;;6.10;5.60;;;19.70;99.90;;;;;;5103702;28;20234;-84
2023/06/11 07:58:52;;;;;;;6.13;5.53;;;19.80;99.90;;;;;;5104034;28;20265;-85
2023/06/11 08:01:18;;;;;;;7.67;5.83;;;20.00;99.90;;;;;;5106166;28;20217;-84
2023/06/11 08:03:43;;;;;;;5.70;5.03;;;20.10;99.90;;;;;;5108066;28;20177;-84
2023/06/11 08:06:09;;;;;;;5.80;5.20;;;20.20;99.90;;;;;;5103534;28;20177;-85
2023/06/11 08:08:35;;;;;;;6.67;5.80;;;20.20;99.90;;;;;;5102658;28;20753;-85
2023/06/11 08:11:01;;;;;;;6.70;5.50;;;20.10;99.90;;;;;;5102021;28;20180;-85
2023/06/11 08:13:27;;;;;;;6.20;5.67;;;20.20;99.90;;;;;;5103858;28;20215;-85
2023/06/11 08:15:53;;;;;;;6.03;5.43;;;20.30;99.90;;;;;;5105282;28;20211;-84
2023/06/11 08:18:19;;;;;;;10.67;5.60;;;20.50;99.90;;;;;;5112510;28;20214;-85
2023/06/11 08:20:45;;;;;;;6.83;5.67;;;20.50;99.90;;;;;;5113146;28;20176;-85
2023/06/11 08:23:12;;;;;;;6.13;5.43;;;20.60;99.90;;;;;;5111748;28;20239;-85
2023/06/11 08:25:39;;;;;;;5.97;5.43;;;20.70;99.90;;;;;;5114110;28;20645;-84
2023/06/11 08:28:05;;;;;;;10.63;5.40;;;20.90;99.90;;;;;;5107088;28;20192;-86
2023/06/11 08:30:31;;;;;;;5.70;5.17;;;20.90;99.90;;;;;;5104500;28;20236;-86
2023/06/11 08:32:56;;;;;;;6.70;5.30;;;21.10;99.90;;;;;;5104754;28;20172;-85
2023/06/11 08:35:22;;;;;;;5.50;5.00;;;21.10;99.90;;;;;;5103946;28;20205;-85
2023/06/11 08:37:48;;;;;;;5.93;5.43;;;21.10;99.90;;;;;;5118009;28;20164;-82
2023/06/11 08:40:14;;;;;;;6.87;4.70;;;21.10;99.90;;;;;;5115701;28;20546;-83
2023/06/11 08:42:40;;;;;;;5.47;5.00;;;21.30;99.90;;;;;;5098358;28;20184;-85
2023/06/11 08:45:06;;;;;;;5.20;4.80;;;21.40;99.90;;;;;;5100295;28;20185;-87
2023/06/11 08:47:37;;;;;;;5.13;4.73;;;21.60;99.90;;;;;;5101649;28;20222;-84
2023/06/11 08:50:03;;;;;;;5.73;4.17;;;21.80;99.90;;;;;;5100853;28;20210;-83
2023/06/11 08:52:33;;;;;;;4.90;4.40;;;21.90;99.90;;;;;;5101128;28;20188;-84
2023/06/11 08:54:59;;;;;;;7.17;4.37;;;22.00;99.90;;;;;;5100010;28;20192;-87
2023/06/11 08:57:25;;;;;;;5.27;4.83;;;22.10;99.90;;;;;;5099006;28;20656;-83
2023/06/11 08:59:51;;;;;;;5.83;5.17;;;22.00;99.90;;;;;;5099855;28;20195;-83
2023/06/11 09:02:17;;;;;;;5.07;4.60;;;22.10;99.90;;;;;;5101600;28;20573;-85
2023/06/11 09:04:43;;;;;;;8.97;4.63;;;22.10;99.90;;;;;;5101261;28;20183;-85
2023/06/11 09:07:09;;;;;;;4.83;4.30;;;22.10;99.90;;;;;;5101014;28;20177;-85
2023/06/11 09:09:35;;;;;;;5.00;4.50;;;22.20;99.90;;;;;;5100722;28;20224;-86
2023/06/11 09:12:07;;;;;;;4.57;4.07;;;22.50;99.90;;;;;;5100825;28;20600;-84
2023/06/11 09:14:33;;;;;;;4.80;4.40;;;22.70;99.90;;;;;;5099983;28;20237;-85
2023/06/11 09:16:59;;;;;;;4.70;4.30;;;22.80;99.90;;;;;;5102627;28;20553;-84
2023/06/11 09:19:25;;;;;;;4.40;4.00;;;22.90;99.90;;;;;;5103599;28;20189;-85
2023/06/11 09:21:53;;;;;;;5.27;4.60;;;23.30;99.90;;;;;;5100637;28;20184;-85
2023/06/11 09:24:20;;;;;;;4.70;4.30;;;23.40;99.90;;;;;;5110055;28;20182;-83
2023/06/11 09:26:53;;;;;;;5.80;4.23;;;23.10;99.90;;;;;;5099353;28;20179;-84
2023/06/11 09:29:20;;;;;;;5.47;4.97;;;23.00;99.90;;;;;;5096154;28;20192;-84
2023/06/11 09:31:46;;;;;;;5.17;4.47;;;23.20;99.90;;;;;;5097084;28;20179;-85
2023/06/11 09:34:16;;;;;;;5.70;4.73;;;23.30;99.90;;;;;;5097298;28;20211;-82
2023/06/11 09:36:48;;;;;;;5.43;4.60;;;23.40;99.90;;;;;;5105164;28;20175;-87
2023/06/11 09:39:16;;;;;;;4.97;4.47;;;23.50;99.90;;;;;;5116175;28;20199;-86
2023/06/11 09:41:49;;;;;;;4.97;4.43;;;23.60;99.90;;;;;;5115638;28;20170;-87
2023/06/11 09:44:19;;;;;;;4.87;4.30;;;23.90;99.90;;;;;;5115963;28;20176;-86
2023/06/11 09:46:48;;;;;;;5.30;4.00;;;24.20;99.90;;;;;;5104558;28;20189;-84
2023/06/11 09:49:16;;;;;;;4.73;4.23;;;24.30;99.90;;;;;;5100692;28;20622;-82
2023/06/11 09:51:43;;;;;;;4.53;4.00;;;24.40;99.90;;;;;;5100101;28;20215;-83
2023/06/11 09:54:10;;;;;;;6.73;4.23;;;24.30;99.90;;;;;;5100359;28;20204;-82
2023/06/11 09:56:37;;;;;;;4.23;3.83;;;24.20;99.90;;;;;;5101158;28;20601;-83
2023/06/11 09:59:03;;;;;;;4.97;4.13;;;23.90;99.90;;;;;;5100691;28;20199;-86
2023/06/11 10:01:30;;;;;;;5.17;4.17;;;23.70;99.90;;;;;;5101428;28;20240;-84
2023/06/11 10:04:00;;;;;;;4.00;3.67;;;23.60;99.90;;;;;;5101682;28;20168;-82
2023/06/11 10:06:30;;;;;;;4.30;3.83;;;23.90;99.90;;;;;;5101638;28;20180;-84
2023/06/11 10:09:00;;;;;;;4.77;4.27;;;24.20;99.90;;;;;;5100387;28;20606;-86
2023/06/11 10:11:28;;;;;;;4.77;3.90;;;24.30;99.90;;;;;;5100130;28;20195;-82
2023/06/11 10:14:01;;;;;;;5.57;4.27;;;24.30;99.90;;;;;;5101527;28;20180;-84
2023/06/11 10:16:27;;;;;;;4.27;3.87;;;24.00;99.90;;;;;;5098409;28;20218;-84
2023/06/11 10:19:10;;;;;;;5.33;4.43;;;23.90;99.90;;;;;;5099378;28;20197;-84
2023/06/11 10:21:44;;;;;;;4.87;4.37;;;23.90;99.90;;;;;;5099223;28;20542;-85
2023/06/11 10:24:23;;;;;;;4.07;3.73;;;24.00;99.90;;;;;;5099535;28;20230;-84
2023/06/11 10:27:08;;;;;;;6.27;4.00;;;24.20;99.90;;;;;;5101499;28;20637;-84
2023/06/11 10:29:47;;;;;;;5.90;3.93;;;24.00;99.90;;;;;;5102860;28;20192;-86
2023/06/11 10:32:19;;;;;;;4.40;4.00;;;24.00;99.90;;;;;;5104737;28;20236;-85
2023/06/11 10:34:47;;;;;;;4.20;3.53;;;23.90;99.90;;;;;;5103365;28;20200;-83
2023/06/11 10:37:13;;;;;;;4.73;3.77;;;23.90;99.90;;;;;;5103550;28;20174;-83
2023/06/11 10:39:54;;;;;;;5.80;3.93;;;23.90;99.90;;;;;;5104265;28;20184;-86
2023/06/11 10:42:51;;;;;;;4.97;3.70;;;24.10;99.90;;;;;;5110999;28;20183;-79
2023/06/11 10:45:17;;;;;;;4.40;3.67;;;24.50;99.90;;;;;;5106925;28;20286;-83
2023/06/11 10:47:49;;;;;;;4.97;3.67;;;25.00;99.90;;;;;;5100858;28;20196;-84
2023/06/11 10:50:23;;;;;;;4.10;3.40;;;25.40;99.90;;;;;;5098386;28;20264;-85
2023/06/11 10:52:57;;;;;;;4.00;3.60;;;25.70;99.90;;;;;;5099667;28;20611;-86
2023/06/11 10:55:26;;;;;;;4.07;3.47;;;26.20;99.90;;;;;;5099367;28;20318;-89
2023/06/11 10:57:55;;;;;;;3.90;3.50;;;26.70;99.90;;;;;;5098451;28;20172;-87
2023/06/11 11:00:22;;;;;;;4.60;3.40;;;26.80;99.90;;;;;;5102875;28;20172;-86
2023/06/11 11:02:48;;;;;;;5.53;3.67;;;27.10;99.90;;;;;;5110217;28;20196;-85
2023/06/11 11:05:14;;;;;;;4.13;3.30;;;27.00;99.90;;;;;;5104158;28;20503;-88
2023/06/11 11:07:44;;;;;;;4.87;3.40;;;27.10;99.90;;;;;;5102774;28;20184;-86
2023/06/11 11:10:11;;;;;;;3.97;3.43;;;27.30;99.90;;;;;;5099005;28;20176;-88
2023/06/11 11:12:45;;;;;;;3.77;3.47;;;27.60;99.90;;;;;;5102310;28;20184;-85
2023/06/11 11:15:14;;;;;;;3.53;3.23;;;28.00;99.70;;;;;;5103382;28;20696;-91
2023/06/11 11:17:41;;;;;;;4.83;3.30;;;28.20;99.90;;;;;;5101777;28;20310;-91
2023/06/11 11:20:11;;;;;;;6.43;3.70;;;28.50;99.90;;;;;;5102141;28;20177;-89
2023/06/11 11:22:37;;;;;;;5.10;3.50;;;29.00;99.90;;;;;;5101534;28;20184;-90
2023/06/11 11:25:29;;;;;;;5.23;3.70;;;28.80;94.10;;;;;;5102904;28;20323;-87
2023/06/11 11:27:55;;;;;;;4.47;3.50;;;27.80;92.60;;;;;;5103520;28;20255;-87
2023/06/11 11:30:21;;;;;;;4.77;3.53;;;27.50;96.30;;;;;;5103168;28;20188;-86
2023/06/11 11:33:18;;;;;;;3.43;3.13;;;27.70;98.70;;;;;;5103752;28;20181;-88
2023/06/11 11:35:55;;;;;;;3.83;3.20;;;28.00;93.40;;;;;;5105695;28;20191;-86
2023/06/11 11:38:22;;;;;;;4.57;2.90;;;28.40;94.80;;;;;;5102834;28;20213;-84
2023/06/11 11:40:57;;;;;;;4.30;2.80;;;28.90;92.20;;;;;;5105139;28;20724;-84
2023/06/11 11:43:23;;;;;;;3.87;3.40;;;29.30;90.10;;;;;;5107888;28;20159;-85
2023/06/11 11:45:49;;;;;;;3.67;3.20;;;29.40;92.20;;;;;;5105815;28;20186;-83
2023/06/11 11:48:16;;;;;;;3.63;3.10;;;29.60;88.80;;;;;;5100785;28;20196;-83
2023/06/11 11:50:45;;;;;;;4.77;3.30;;;29.90;91.50;;;;;;5100910;28;20170;-84
2023/06/11 11:53:18;;;;;;;5.27;3.30;;;30.30;90.60;;;;;;5102339;28;20167;-83
2023/06/11 11:55:45;;;;;;;3.57;3.17;;;30.40;84.00;;;;;;5101614;28;20286;-85
2023/06/11 11:58:17;;;;;;;4.10;3.03;;;30.60;82.10;;;;;;5101230;28;20199;-83
2023/06/11 12:00:56;;;;;;;3.30;3.00;;;30.70;80.50;;;;;;5100810;28;20719;-85
2023/06/11 12:03:22;;;;;;;5.10;3.13;;;30.90;80.00;;;;;;5100605;28;20149;-81
2023/06/11 12:05:55;;;;;;;4.10;2.93;;;30.70;82.80;;;;;;5099539;28;20169;-83
2023/06/11 12:08:22;;;;;;;3.13;2.90;;;30.60;76.40;;;;;;5098590;28;20204;-84
2023/06/11 12:10:48;;;;;;;3.93;3.00;;;30.60;78.60;;;;;;5100073;28;20204;-83
2023/06/11 12:13:14;;;;;;;4.60;2.90;;;30.50;73.20;;;;;;5101402;28;20211;-80
2023/06/11 12:15:40;;;;;;;3.90;3.50;;;30.40;79.90;;;;;;5102840;28;20564;-83
2023/06/11 12:18:06;;;;;;;4.87;3.30;;;30.60;78.70;;;;;;5101892;28;20669;-82
2023/06/11 12:20:31;;;;;;;3.47;3.17;;;30.60;77.00;;;;;;5101297;28;20256;-83
2023/06/11 12:22:57;;;;;;;3.87;3.50;;;30.90;81.10;;;;;;5099604;28;20185;-82
2023/06/11 12:25:25;;;;;;;3.83;3.07;;;31.20;80.90;;;;;;5100638;28;20178;-81
2023/06/11 12:27:51;;;;;;;4.33;3.33;;;30.60;75.40;;;;;;5100233;28;20168;-82
2023/06/11 12:30:17;;;;;;;3.40;3.00;;;30.50;74.00;;;;;;5100103;28;20255;-83
2023/06/11 12:32:43;;;;;;;3.20;2.90;;;30.70;81.20;;;;;;5098222;28;20204;-83
2023/06/11 12:35:09;;;;;;;4.03;3.00;;;30.90;72.10;;;;;;5098995;28;20208;-86
2023/06/11 12:37:36;;;;;;;3.03;2.70;;;31.00;73.60;;;;;;5107755;28;20177;-86
2023/06/11 12:40:03;;;;;;;3.40;2.90;;;31.30;70.40;;;;;;5109766;28;20302;-89
2023/06/11 12:42:29;;;;;;;3.37;2.77;;;31.50;75.30;;;;;;5104882;28;20560;-88
2023/06/11 12:44:55;;;;;;;4.23;3.17;;;31.70;76.40;;;;;;5107781;28;20191;-88
2023/06/11 12:47:21;;;;;;;2.97;2.70;;;31.70;71.10;;;;;;5115402;28;20171;-80
2023/06/11 12:49:46;;;;;;;5.37;3.10;;;31.80;69.70;;;;;;5106930;28;20196;-84
2023/06/11 12:52:12;;;;;;;5.77;3.10;;;31.60;70.70;;;;;;5101346;28;20180;-85
2023/06/11 12:54:39;;;;;;;3.03;2.77;;;31.50;67.10;;;;;;5101743;28;20173;-86
2023/06/11 12:57:05;;;;;;;5.00;2.80;;;31.30;72.60;;;;;;5104286;28;20203;-86
2023/06/11 12:59:31;;;;;;;3.07;2.67;;;31.40;68.50;;;;;;5100776;28;20219;-86
2023/06/11 13:01:57;;;;;;;4.63;2.90;;;31.10;67.70;;;;;;5100260;28;20647;-86
2023/06/11 13:04:24;;;;;;;4.80;2.90;;;31.00;71.10;;;;;;5111147;28;20172;-85
2023/06/11 13:06:50;;;;;;;5.67;3.17;;;31.10;65.50;;;;;;5113532;28;20188;-84
2023/06/11 13:09:16;;;;;;;2.70;2.50;;;31.10;69.60;;;;;;5115246;28;20186;-85
2023/06/11 13:11:42;;;;;;;3.20;2.70;;;31.10;69.80;;;;;;5111608;28;20162;-85
2023/06/11 13:14:08;;;;;;;6.60;3.30;;;31.10;65.30;;;;;;5113161;28;20173;-85
2023/06/11 13:16:34;;;;;;;4.17;2.70;;;31.10;70.50;;;;;;5098346;28;20300;-86
2023/06/11 13:19:02;;;;;;;3.20;2.90;;;31.20;65.00;;;;;;5098579;28;20250;-87
2023/06/11 13:21:28;;;;;;;3.27;2.97;;;30.90;67.70;;;;;;5097787;28;20181;-86
2023/06/11 13:23:54;;;;;;;3.33;2.73;;;30.90;66.70;;;;;;5098419;28;20177;-82
2023/06/11 13:26:22;;;;;;;5.13;3.00;;;31.00;64.80;;;;;;5096457;28;20244;-83
2023/06/11 13:28:48;;;;;;;3.20;2.90;;;30.90;66.40;;;;;;5097748;28;20291;-84
2023/06/11 13:31:13;;;;;;;4.93;2.90;;;30.90;65.20;;;;;;5097775;28;20207;-85
2023/06/11 13:33:40;;;;;;;3.03;2.60;;;31.10;70.00;;;;;;5097309;28;20188;-85
2023/06/11 13:36:06;;;;;;;3.47;2.63;;;30.90;67.70;;;;;;5098053;28;20626;-83
2023/06/11 13:38:33;;;;;;;4.33;2.80;;;30.70;67.70;;;;;;5098563;28;20217;-81
2023/06/11 13:41:00;;;;;;;4.17;2.83;;;30.70;66.90;;;;;;5098320;28;20628;-83
2023/06/11 13:49:23;;;;;;;3.43;2.60;;;30.40;62.30;;;;;;5017709;28;20553;-81
2023/06/11 13:51:49;;;;;;;3.87;2.90;;;30.10;64.00;;;;;;5000107;28;20187;-81
2023/06/11 13:54:32;;;;;;;3.23;2.37;;;30.10;65.40;;;;;;5637422;23;20707;-81
2023/06/11 13:56:58;;;;;;;8.17;3.93;;;30.30;63.90;;;;;;4940858;29;20293;-79
2023/06/11 13:59:24;;;;;;;3.23;2.87;;;30.40;65.10;;;;;;4941742;29;20188;-84
2023/06/11 14:01:54;;;;;;;3.03;2.73;;;30.40;69.40;;;;;;4958404;29;20161;-86
2023/06/11 14:04:21;;;;;;;3.03;2.83;;;30.50;69.30;;;;;;4943751;29;20181;-86
2023/06/11 14:06:47;;;;;;;3.37;2.70;;;30.60;62.90;;;;;;4944663;29;20639;-83
2023/06/11 14:09:13;;;;;;;3.10;2.90;;;30.70;63.10;;;;;;4960816;28;20674;-85
2023/06/11 14:11:38;;;;;;;3.13;2.83;;;30.60;65.30;;;;;;4943221;29;20184;-81
2023/06/11 14:14:04;;;;;;;3.10;2.70;;;30.60;65.90;;;;;;4960311;29;20642;-81
2023/06/11 14:16:32;;;;;;;3.00;2.80;;;30.60;61.60;;;;;;4955520;28;20248;-85
2023/06/11 14:18:58;;;;;;;4.50;2.73;;;30.60;66.00;;;;;;4942322;29;20209;-82
2023/06/11 14:21:24;;;;;;;2.90;2.70;;;30.40;65.00;;;;;;4942894;29;20186;-82
2023/06/11 14:23:50;;;;;;;9.77;2.80;;;30.40;67.70;;;;;;4961258;28;20200;-82
2023/06/11 14:26:16;;;;;;;3.10;2.80;;;30.40;63.50;;;;;;4960086;28;20655;-80
